Time,TemperatureF,DewpointF,PressureIn,WindDirection,WindDirectionDegrees,WindSpeedMPH,WindSpeedGustMPH,Humidity,HourlyPrecipIn,Conditions,Clouds,dailyrainin,SoftwareType,DateUTC
2013-01-30 00:01:00,65.8,64.6,30.00,South,180,1.0,1.1,96,0.00,RA,,0.00,WeatherDisplay:10.37,2013-01-30 10:01:00,
2013-01-30 00:06:00,66.2,65.0,30.00,South,180,2.7,2.7,96,0.00,RA,,0.00,WeatherDisplay:10.37,2013-01-30 10:06:00,
2013-01-30 00:11:00,66.4,65.2,30.00,South,180,1.4,2.3,96,0.00,CLR,,0.00,WeatherDisplay:10.37,2013-01-30 10:11:00,
2013-01-30 00:16:00,66.0,64.8,30.00,South,180,2.0,2.3,96,0.00,CLR,,0.00,WeatherDisplay:10.37,2013-01-30 10:16:00,
2013-01-30 00:22:00,65.8,64.6,30.00,South,180,1.5,1.7,96,0.00,CLR,,0.00,WeatherDisplay:10.37,2013-01-30 10:22:00,
2013-01-30 00:27:00,65.8,64.6,29.99,South,180,1.8,2.3,96,0.00,CLR,,0.00,WeatherDisplay:10.37,2013-01-30 10:27:00,
2013-01-30 00:32:00,65.8,64.6,29.99,South,180,2.2,2.3,96,0.00,CLR,,0.00,WeatherDisplay:10.37,2013-01-30 10:32:00,
2013-01-30 00:37:00,65.8,64.6,29.99,South,180,1.8,2.3,96,0.00,CLR,,0.00,WeatherDisplay:10.37,2013-01-30 10:37:00,
2013-01-30 00:42:00,65.8,64.6,29.99,SSE,158,2.1,2.3,96,0.00,CLR,,0.00,WeatherDisplay:10.37,2013-01-30 10:42:00,
2013-01-30 00:47:00,65.8,64.6,29.99,SSE,158,2.3,2.3,96,0.00,CLR,,0.00,WeatherDisplay:10.37,2013-01-30 10:47:00,
2013-01-30 00:52:00,66.0,64.8,29.99,SSE,158,2.1,2.3,96,0.00,CLR,,0.00,WeatherDisplay:10.37,2013-01-30 10:52:00,
2013-01-30 00:57:00,66.0,64.8,29.99,SSE,158,1.8,2.3,96,0.00,CLR,,0.00,WeatherDisplay:10.37,2013-01-30 10:57:00,
2013-01-30 01:02:00,66.0,64.8,30.00,SSE,158,2.5,2.7,96,0.00,CLR,,0.00,WeatherDisplay:10.37,2013-01-30 11:02:00,
2013-01-30 01:07:00,66.0,64.8,30.00,SSE,158,2.3,2.3,96,0.00,CLR,,0.00,WeatherDisplay:10.37,2013-01-30 11:07:00,
2013-01-30 01:12:00,65.8,64.6,30.00,SSE,158,1.5,2.3,96,0.00,CLR,,0.00,WeatherDisplay:10.37,2013-01-30 11:12:00,
2013-01-30 01:17:00,65.8,64.6,30.00,South,180,2.4,2.4,96,0.00,CLR,,0.00,WeatherDisplay:10.37,2013-01-30 11:17:00,
2013-01-30 01:22:00,65.8,64.6,30.00,South,180,2.2,2.3,96,0.00,CLR,,0.00,WeatherDisplay:10.37,2013-01-30 11:22:00,
2013-01-30 01:27:00,65.8,64.6,30.00,South,180,2.0,2.3,96,0.00,CLR,,0.00,WeatherDisplay:10.37,2013-01-30 11:27:00,
2013-01-30 01:33:00,65.8,64.6,30.00,South,180,2.1,2.3,96,0.00,CLR,,0.00,WeatherDisplay:10.37,2013-01-30 11:33:00,
2013-01-30 01:38:00,65.8,64.6,29.99,South,180,1.7,1.7,96,0.00,CLR,,0.00,WeatherDisplay:10.37,2013-01-30 11:38:00,
2013-01-30 01:43:00,65.8,64.6,29.99,South,180,0.0,0.0,96,0.00,CLR,,0.00,WeatherDisplay:10.37,2013-01-30 11:43:00,
2013-01-30 01:48:00,65.7,64.5,29.99,South,180,0.0,0.0,96,0.00,CLR,,0.00,WeatherDisplay:10.37,2013-01-30 11:48:00,
2013-01-30 01:53:00,65.7,64.5,29.99,South,180,0.0,0.0,96,0.00,CLR,,0.00,WeatherDisplay:10.37,2013-01-30 11:53:00,
2013-01-30 01:58:00,65.7,64.5,29.98,SSE,158,2.0,2.3,96,0.00,CLR,,0.00,WeatherDisplay:10.37,2013-01-30 11:58:00,
2013-01-30 02:03:00,65.7,64.5,29.98,SE,135,0.0,0.0,96,0.00,CLR,,0.00,WeatherDisplay:10.37,2013-01-30 12:03:00,
2013-01-30 02:08:00,65.5,64.3,29.98,South,180,0.6,2.3,96,0.00,CLR,,0.00,WeatherDisplay:10.37,2013-01-30 12:08:00,
2013-01-30 02:13:00,65.7,64.5,29.98,SSW,202,1.8,2.3,96,0.00,CLR,,0.00,WeatherDisplay:10.37,2013-01-30 12:13:00,
2013-01-30 02:18:00,65.7,64.5,29.98,South,180,1.9,2.3,96,0.00,CLR,,0.00,WeatherDisplay:10.37,2013-01-30 12:18:00,
2013-01-30 02:23:00,65.8,64.9,29.99,SSW,202,2.0,2.3,97,0.00,CLR,,0.00,WeatherDisplay:10.37,2013-01-30 12:23:00,
2013-01-30 02:28:00,65.8,64.9,29.99,South,180,1.9,2.3,97,0.00,CLR,,0.00,WeatherDisplay:10.37,2013-01-30 12:28:00,
2013-01-30 02:33:00,65.8,64.9,29.99,South,180,1.7,2.3,97,0.00,CLR,,0.00,WeatherDisplay:10.37,2013-01-30 12:33:00,
2013-01-30 02:38:00,65.8,64.9,29.99,SSE,158,1.9,2.3,97,0.00,CLR,,0.00,WeatherDisplay:10.37,2013-01-30 12:38:00,
2013-01-30 02:44:00,65.7,64.8,29.99,South,180,1.8,2.3,97,0.00,CLR,,0.00,WeatherDisplay:10.37,2013-01-30 12:44:00,
2013-01-30 02:49:00,65.7,64.8,29.98,South,180,2.0,2.3,97,0.00,CLR,,0.00,WeatherDisplay:10.37,2013-01-30 12:49:00,
2013-01-30 02:54:00,65.7,64.8,29.98,South,180,2.0,2.3,97,0.00,CLR,,0.00,WeatherDisplay:10.37,2013-01-30 12:54:00,
2013-01-30 02:59:00,65.7,64.8,29.98,South,180,1.5,1.7,97,0.00,CLR,,0.00,WeatherDisplay:10.37,2013-01-30 12:59:00,
2013-01-30 03:04:00,65.7,64.8,29.98,South,180,2.0,2.3,97,0.00,CLR,,0.00,WeatherDisplay:10.37,2013-01-30 13:04:00,
2013-01-30 03:09:00,65.5,64.6,29.98,South,180,0.0,0.0,97,0.00,CLR,,0.00,WeatherDisplay:10.37,2013-01-30 13:09:00,
2013-01-30 03:14:00,65.5,64.6,29.98,South,180,1.6,2.3,97,0.00,CLR,,0.00,WeatherDisplay:10.37,2013-01-30 13:14:00,
2013-01-30 03:19:00,65.5,64.6,29.98,South,180,2.0,2.3,97,0.00,CLR,,0.00,WeatherDisplay:10.37,2013-01-30 13:19:00,
2013-01-30 03:24:00,65.5,64.6,29.98,South,180,2.2,2.3,97,0.00,CLR,,0.00,WeatherDisplay:10.37,2013-01-30 13:24:00,
2013-01-30 03:29:00,65.7,64.8,29.98,South,180,2.3,2.3,97,0.00,CLR,,0.00,WeatherDisplay:10.37,2013-01-30 13:29:00,
2013-01-30 03:34:00,65.5,64.6,29.98,South,180,2.3,2.3,97,0.00,CLR,,0.00,WeatherDisplay:10.37,2013-01-30 13:34:00,
2013-01-30 03:39:00,65.3,64.4,29.98,South,180,0.5,1.1,97,0.00,CLR,,0.00,WeatherDisplay:10.37,2013-01-30 13:39:00,
2013-01-30 03:44:00,65.3,64.4,29.98,South,180,0.0,0.0,97,0.00,CLR,,0.00,WeatherDisplay:10.37,2013-01-30 13:44:00,
2013-01-30 03:49:00,65.1,64.2,29.98,South,180,0.0,0.0,97,0.00,CLR,,0.00,WeatherDisplay:10.37,2013-01-30 13:49:00,
2013-01-30 03:55:00,65.1,64.2,29.98,South,170,1.0,2.0,97,0.00,CLR,,0.00,WeatherDisplay:10.37,2013-01-30 13:55:00,
2013-01-30 04:00:00,65.1,64.2,29.98,SSE,158,1.0,2.0,97,0.00,CLR,,0.00,WeatherDisplay:10.37,2013-01-30 14:00:00,
2013-01-30 04:05:00,65.1,64.2,29.98,SSE,158,1.0,2.0,97,0.00,CLR,,0.00,WeatherDisplay:10.37,2013-01-30 14:05:00,
2013-01-30 04:10:00,65.1,64.2,29.98,SSE,158,0.0,1.0,97,0.00,CLR,,0.00,WeatherDisplay:10.37,2013-01-30 14:10:00,
2013-01-30 04:15:00,65.1,64.2,29.98,SSE,158,1.0,2.0,97,0.00,CLR,,0.00,WeatherDisplay:10.37,2013-01-30 14:15:00,
2013-01-30 04:20:00,65.1,64.2,29.98,SSE,158,1.0,3.0,97,0.00,CLR,,0.00,WeatherDisplay:10.37,2013-01-30 14:20:00,
2013-01-30 04:25:00,65.3,64.4,29.98,SSE,158,2.0,3.0,97,0.00,CLR,,0.00,WeatherDisplay:10.37,2013-01-30 14:25:00,
2013-01-30 04:30:00,65.3,64.4,29.98,SSE,158,1.0,3.0,97,0.00,CLR,,0.00,WeatherDisplay:10.37,2013-01-30 14:30:00,
2013-01-30 04:35:00,65.1,64.2,29.99,SSE,158,1.0,3.0,97,0.00,CLR,,0.00,WeatherDisplay:10.37,2013-01-30 14:35:00,
2013-01-30 04:39:00,65.1,64.2,29.99,SSE,158,1.5,1.7,97,0.00,CLR,,0.00,WeatherDisplay:10.37,2013-01-30 14:39:00,
2013-01-30 04:45:00,65.1,64.2,29.99,SSE,158,1.0,2.0,97,0.00,CLR,,0.00,WeatherDisplay:10.37,2013-01-30 14:45:00,
2013-01-30 04:50:00,64.9,64.0,29.99,SSE,158,0.0,0.0,97,0.00,CLR,,0.00,WeatherDisplay:10.37,2013-01-30 14:50:00,
2013-01-30 04:55:00,64.9,64.0,29.99,SSE,158,2.0,2.0,97,0.00,CLR,,0.00,WeatherDisplay:10.37,2013-01-30 14:55:00,
2013-01-30 05:00:00,64.9,64.0,29.99,SSE,158,2.2,2.3,97,0.00,CLR,,0.00,WeatherDisplay:10.37,2013-01-30 15:00:00,
2013-01-30 05:05:00,64.9,64.0,29.99,SSE,158,2.0,3.0,97,0.00,CLR,,0.00,WeatherDisplay:10.37,2013-01-30 15:05:00,
2013-01-30 05:10:00,64.9,64.0,29.99,SSE,158,0.0,0.0,97,0.00,CLR,,0.00,WeatherDisplay:10.37,2013-01-30 15:10:00,
2013-01-30 05:15:00,64.9,64.0,29.99,SSE,158,0.0,0.0,97,0.00,CLR,,0.00,WeatherDisplay:10.37,2013-01-30 15:15:00,
2013-01-30 05:20:00,64.9,64.0,29.99,SSE,158,0.0,0.0,97,0.00,CLR,,0.00,WeatherDisplay:10.37,2013-01-30 15:20:00,
2013-01-30 05:25:00,64.8,63.9,30.00,SSE,158,0.0,0.0,97,0.00,CLR,,0.00,WeatherDisplay:10.37,2013-01-30 15:25:00,
2013-01-30 05:30:00,64.8,63.9,30.00,South,182,0.0,0.0,97,0.00,CLR,,0.00,WeatherDisplay:10.37,2013-01-30 15:30:00,
2013-01-30 05:35:00,64.8,63.9,30.00,SW,216,2.0,3.0,97,0.00,CLR,,0.00,WeatherDisplay:10.37,2013-01-30 15:35:00,
2013-01-30 05:40:00,64.8,63.9,30.00,SW,225,2.2,2.3,97,0.00,CLR,,0.00,WeatherDisplay:10.37,2013-01-30 15:40:00,
2013-01-30 05:45:00,65.1,64.2,30.00,SSW,192,2.0,3.0,97,0.00,CLR,,0.00,WeatherDisplay:10.37,2013-01-30 15:45:00,
2013-01-30 05:50:00,65.3,64.4,30.00,SSE,158,2.0,3.0,97,0.00,CLR,,0.00,WeatherDisplay:10.37,2013-01-30 15:50:00,
2013-01-30 05:55:00,64.9,64.0,30.00,SSE,158,2.0,2.0,97,0.00,CLR,,0.00,WeatherDisplay:10.37,2013-01-30 15:55:00,
2013-01-30 06:00:00,64.8,63.9,30.00,SSE,158,2.0,2.0,97,0.00,CLR,,0.00,WeatherDisplay:10.37,2013-01-30 16:00:00,
2013-01-30 06:05:00,64.8,63.9,30.00,SSE,158,1.0,2.0,97,0.00,CLR,,0.00,WeatherDisplay:10.37,2013-01-30 16:05:00,
2013-01-30 06:10:00,64.8,63.9,30.00,South,178,2.0,3.0,97,0.00,CLR,,0.00,WeatherDisplay:10.37,2013-01-30 16:10:00,
2013-01-30 06:15:00,64.8,63.9,30.00,SSW,203,2.0,3.0,97,0.00,CLR,,0.00,WeatherDisplay:10.37,2013-01-30 16:15:00,
2013-01-30 06:20:00,64.6,63.7,30.00,SW,215,2.0,2.0,97,0.00,CLR,,0.00,WeatherDisplay:10.37,2013-01-30 16:20:00,
2013-01-30 06:25:00,64.6,63.7,30.00,SW,225,1.6,2.3,97,0.00,CLR,,0.00,WeatherDisplay:10.37,2013-01-30 16:25:00,
2013-01-30 06:30:00,64.6,63.7,30.00,SW,214,2.0,3.0,97,0.00,CLR,,0.00,WeatherDisplay:10.37,2013-01-30 16:30:00,
2013-01-30 06:35:00,64.6,63.7,30.00,SSW,202,2.2,2.3,97,0.00,CLR,,0.00,WeatherDisplay:10.37,2013-01-30 16:35:00,
2013-01-30 06:40:00,64.6,63.7,30.00,SW,217,2.0,3.0,97,0.00,CLR,,0.00,WeatherDisplay:10.37,2013-01-30 16:40:00,
2013-01-30 06:45:00,64.6,63.7,30.00,SW,225,2.2,2.3,97,0.00,CLR,,0.00,WeatherDisplay:10.37,2013-01-30 16:45:00,
2013-01-30 06:50:00,64.6,63.7,30.00,SSW,208,2.0,2.0,97,0.00,CLR,,0.00,WeatherDisplay:10.37,2013-01-30 16:50:00,
2013-01-30 06:55:00,64.6,63.7,30.00,SSW,206,1.0,2.0,97,0.00,CLR,,0.00,WeatherDisplay:10.37,2013-01-30 16:55:00,
2013-01-30 07:00:00,64.6,63.7,30.00,SSW,196,1.0,2.0,97,0.00,CLR,,0.00,WeatherDisplay:10.37,2013-01-30 17:00:00,
2013-01-30 07:05:00,64.6,63.7,30.00,SSW,205,2.0,3.0,97,0.00,CLR,,0.00,WeatherDisplay:10.37,2013-01-30 17:05:00,
2013-01-30 07:10:00,64.6,63.7,30.00,SW,218,2.0,3.0,97,0.00,CLR,,0.00,WeatherDisplay:10.37,2013-01-30 17:10:00,
2013-01-30 07:15:00,64.6,63.7,30.01,SW,221,2.0,2.0,97,0.00,CLR,,0.00,WeatherDisplay:10.37,2013-01-30 17:15:00,
2013-01-30 07:20:00,64.8,63.9,30.01,SSW,210,2.0,3.0,97,0.00,CLR,,0.00,WeatherDisplay:10.37,2013-01-30 17:20:00,
2013-01-30 07:25:00,64.8,63.9,30.01,SSW,202,1.0,2.0,97,0.00,CLR,,0.00,WeatherDisplay:10.37,2013-01-30 17:25:00,
2013-01-30 07:30:00,64.8,63.9,30.01,SSW,202,2.4,2.7,97,0.00,CLR,,0.00,WeatherDisplay:10.37,2013-01-30 17:30:00,
2013-01-30 07:35:00,65.0,64.2,30.01,SSW,211,2.0,3.0,97,0.00,CLR,,0.00,WeatherDisplay:10.37,2013-01-30 17:35:00,
2013-01-30 07:40:00,65.7,64.8,30.01,SSW,206,1.0,2.0,97,0.00,CLR,,0.00,WeatherDisplay:10.37,2013-01-30 17:40:00,
2013-01-30 07:45:00,66.1,65.2,30.01,South,190,1.0,3.0,97,0.00,CLR,,0.00,WeatherDisplay:10.37,2013-01-30 17:45:00,
2013-01-30 07:50:00,66.8,65.9,30.02,South,182,2.0,3.0,97,0.00,CLR,,0.00,WeatherDisplay:10.37,2013-01-30 17:50:00,
2013-01-30 07:55:00,67.5,66.6,30.02,SSW,195,2.0,3.0,97,0.00,CLR,,0.00,WeatherDisplay:10.37,2013-01-30 17:55:00,
2013-01-30 08:00:00,68.0,67.4,30.02,South,180,2.5,2.5,98,0.00,CLR,,0.00,WeatherDisplay:10.37,2013-01-30 18:00:00,
2013-01-30 08:05:00,68.4,67.8,30.02,South,186,1.0,2.0,98,0.00,CLR,,0.00,WeatherDisplay:10.37,2013-01-30 18:05:00,
2013-01-30 08:10:00,69.0,68.5,30.02,South,180,2.0,2.0,98,0.00,CLR,,0.00,WeatherDisplay:10.37,2013-01-30 18:10:00,
2013-01-30 08:15:00,68.8,67.9,30.03,South,172,0.0,2.0,97,0.00,CLR,,0.00,WeatherDisplay:10.37,2013-01-30 18:15:00,
2013-01-30 08:20:00,68.5,67.3,30.03,SE,135,0.0,0.0,96,0.00,CLR,,0.00,WeatherDisplay:10.37,2013-01-30 18:20:00,
2013-01-30 08:25:00,70.1,68.9,30.03,SE,144,0.0,2.0,96,0.00,CLR,,0.00,WeatherDisplay:10.37,2013-01-30 18:25:00,
2013-01-30 08:30:00,70.0,68.5,30.03,SSE,151,0.0,3.0,95,0.00,CLR,,0.00,WeatherDisplay:10.37,2013-01-30 18:30:00,
2013-01-30 08:35:00,70.0,67.9,30.03,SSE,165,2.0,3.0,93,0.00,CLR,,0.00,WeatherDisplay:10.37,2013-01-30 18:35:00,
2013-01-30 08:40:00,71.6,69.8,30.03,South,169,0.0,2.0,94,0.00,CLR,,0.00,WeatherDisplay:10.37,2013-01-30 18:40:00,
2013-01-30 08:45:00,71.6,69.8,30.03,SSE,162,0.0,0.0,94,0.00,CLR,,0.00,WeatherDisplay:10.37,2013-01-30 18:45:00,
2013-01-30 08:50:00,71.6,69.8,30.03,SSE,158,0.0,0.0,94,0.00,CLR,,0.00,WeatherDisplay:10.37,2013-01-30 18:50:00,
2013-01-30 08:55:00,71.6,69.8,30.03,SSE,158,0.0,0.0,94,0.00,CLR,,0.00,WeatherDisplay:10.37,2013-01-30 18:55:00,
2013-01-30 09:00:00,71.6,69.8,30.03,SSE,158,0.0,0.0,94,0.00,CLR,,0.00,WeatherDisplay:10.37,2013-01-30 19:00:00,
2013-01-30 09:05:00,71.6,69.8,30.03,SSE,158,0.0,0.0,94,0.00,CLR,,0.00,WeatherDisplay:10.37,2013-01-30 19:05:00,
2013-01-30 09:10:00,75.0,68.4,30.04,SE,146,1.0,1.0,80,0.00,CLR,,0.00,WeatherDisplay:10.37,2013-01-30 19:10:00,
2013-01-30 09:15:00,75.0,68.4,30.04,SE,135,1.0,1.0,80,0.00,CLR,,0.00,WeatherDisplay:10.37,2013-01-30 19:15:00,
2013-01-30 09:20:00,75.0,68.4,30.04,SE,135,1.1,1.1,80,0.00,CLR,,0.00,WeatherDisplay:10.37,2013-01-30 19:20:00,
2013-01-30 09:25:00,75.0,68.4,30.04,SE,135,1.1,1.1,80,0.00,CLR,,0.00,WeatherDisplay:10.37,2013-01-30 19:25:00,
2013-01-30 09:30:00,75.0,68.4,30.04,SE,135,1.1,1.1,80,0.00,CLR,,0.00,WeatherDisplay:10.37,2013-01-30 19:30:00,
2013-01-30 09:35:00,75.0,68.4,30.04,SE,135,1.1,1.1,80,0.00,CLR,,0.00,WeatherDisplay:10.37,2013-01-30 19:35:00,
2013-01-30 09:40:00,75.0,68.4,30.04,SE,135,1.1,1.1,80,0.00,CLR,,0.00,WeatherDisplay:10.37,2013-01-30 19:40:00,
2013-01-30 09:45:00,75.0,68.4,30.04,SE,135,1.1,1.1,80,0.00,CLR,,0.00,WeatherDisplay:10.37,2013-01-30 19:45:00,
2013-01-30 09:50:00,75.0,68.4,30.04,SE,135,1.1,1.1,80,0.00,CLR,,0.00,WeatherDisplay:10.37,2013-01-30 19:50:00,
2013-01-30 09:55:00,75.0,68.4,30.04,SE,135,1.1,1.1,80,0.00,CLR,,0.00,WeatherDisplay:10.37,2013-01-30 19:55:00,
2013-01-30 10:00:00,75.0,68.4,30.04,SE,135,1.1,1.1,80,0.00,CLR,,0.00,WeatherDisplay:10.37,2013-01-30 20:00:00,
2013-01-30 10:05:00,75.0,68.4,30.04,SE,135,1.1,1.1,80,0.00,CLR,,0.00,WeatherDisplay:10.37,2013-01-30 20:05:00,
2013-01-30 10:10:00,75.0,68.4,30.04,SE,135,1.1,1.1,80,0.00,CLR,,0.00,WeatherDisplay:10.37,2013-01-30 20:10:00,
2013-01-30 10:15:00,75.0,68.4,30.04,SE,135,1.1,1.1,80,0.00,CLR,,0.00,WeatherDisplay:10.37,2013-01-30 20:15:00,
2013-01-30 10:21:00,75.0,68.4,30.04,SE,135,1.1,1.1,80,0.00,CLR,,0.00,WeatherDisplay:10.37,2013-01-30 20:21:00,
2013-01-30 10:26:00,75.0,68.4,30.04,SE,135,1.1,1.1,80,0.00,CLR,,0.00,WeatherDisplay:10.37,2013-01-30 20:26:00,
2013-01-30 10:31:00,75.0,68.4,30.04,SE,135,1.1,1.1,80,0.00,CLR,,0.00,WeatherDisplay:10.37,2013-01-30 20:31:00,
2013-01-30 10:36:00,75.0,68.4,30.04,SE,135,1.1,1.1,80,0.00,CLR,,0.00,WeatherDisplay:10.37,2013-01-30 20:36:00,
2013-01-30 10:41:00,75.0,68.4,30.04,SE,135,1.1,1.1,80,0.00,CLR,,0.00,WeatherDisplay:10.37,2013-01-30 20:41:00,
2013-01-30 10:46:00,75.0,68.4,30.04,SE,135,1.1,1.1,80,0.00,CLR,,0.00,WeatherDisplay:10.37,2013-01-30 20:46:00,
2013-01-30 10:51:00,75.0,68.4,30.04,SE,135,1.1,1.1,80,0.00,CLR,,0.00,WeatherDisplay:10.37,2013-01-30 20:51:00,
2013-01-30 10:56:00,75.0,68.4,30.04,SE,135,1.1,1.1,80,0.00,CLR,,0.00,WeatherDisplay:10.37,2013-01-30 20:56:00,
2013-01-30 11:01:00,75.0,68.4,30.04,SE,135,1.1,1.1,80,0.00,CLR,,0.00,WeatherDisplay:10.37,2013-01-30 21:01:00,
2013-01-30 11:06:00,75.0,68.4,30.04,SE,135,1.1,1.1,80,0.00,CLR,,0.00,WeatherDisplay:10.37,2013-01-30 21:06:00,
2013-01-30 11:11:00,75.0,68.4,30.04,SE,135,1.1,1.1,80,0.00,CLR,,0.00,WeatherDisplay:10.37,2013-01-30 21:11:00,
2013-01-30 11:16:00,75.0,68.4,30.04,SE,135,1.1,1.1,80,0.00,CLR,,0.00,WeatherDisplay:10.37,2013-01-30 21:16:00,
2013-01-30 11:21:00,75.0,68.4,30.04,SE,135,1.1,1.1,80,0.00,CLR,,0.00,WeatherDisplay:10.37,2013-01-30 21:21:00,
2013-01-30 11:26:00,75.0,68.4,30.04,SE,135,1.1,1.1,80,0.00,CLR,,0.00,WeatherDisplay:10.37,2013-01-30 21:26:00,
2013-01-30 11:32:00,75.0,68.4,30.04,SE,135,1.1,1.1,80,0.00,CLR,,0.00,WeatherDisplay:10.37,2013-01-30 21:32:00,
2013-01-30 11:37:00,75.0,68.4,30.04,SE,135,1.1,1.1,80,0.00,CLR,,0.00,WeatherDisplay:10.37,2013-01-30 21:37:00,
2013-01-30 11:42:00,75.0,68.4,30.04,SE,135,1.1,1.1,80,0.00,CLR,,0.00,WeatherDisplay:10.37,2013-01-30 21:42:00,
2013-01-30 11:47:00,75.0,68.4,30.04,SE,135,1.1,1.1,80,0.00,CLR,,0.00,WeatherDisplay:10.37,2013-01-30 21:47:00,
2013-01-30 11:52:00,75.0,68.4,30.04,SE,135,1.1,1.1,80,0.00,CLR,,0.00,WeatherDisplay:10.37,2013-01-30 21:52:00,
2013-01-30 11:57:00,75.0,68.4,30.04,SE,135,1.1,1.1,80,0.00,CLR,,0.00,WeatherDisplay:10.37,2013-01-30 21:57:00,
2013-01-30 12:02:00,75.0,68.4,30.04,SE,135,1.1,1.1,80,0.00,CLR,,0.00,WeatherDisplay:10.37,2013-01-30 22:02:00,
2013-01-30 12:07:00,75.0,68.4,30.04,SE,135,1.1,1.1,80,0.00,CLR,,0.00,WeatherDisplay:10.37,2013-01-30 22:07:00,
2013-01-30 12:12:00,75.0,68.4,30.04,SE,135,1.1,1.1,80,0.00,CLR,,0.00,WeatherDisplay:10.37,2013-01-30 22:12:00,
2013-01-30 12:17:00,75.0,68.4,30.04,SE,135,1.1,1.1,80,0.00,CLR,,0.00,WeatherDisplay:10.37,2013-01-30 22:17:00,
2013-01-30 12:22:00,75.0,68.4,30.04,SE,135,1.1,1.1,80,0.00,CLR,,0.00,WeatherDisplay:10.37,2013-01-30 22:22:00,
2013-01-30 12:27:00,75.0,68.4,30.04,SE,135,1.1,1.1,80,0.00,CLR,,0.00,WeatherDisplay:10.37,2013-01-30 22:27:00,
2013-01-30 12:32:00,75.0,68.4,30.04,SE,135,1.1,1.1,80,0.00,CLR,,0.00,WeatherDisplay:10.37,2013-01-30 22:32:00,
2013-01-30 12:37:00,75.0,68.4,30.04,SE,135,1.1,1.1,80,0.00,CLR,,0.00,WeatherDisplay:10.37,2013-01-30 22:37:00,
2013-01-30 12:43:00,75.0,68.4,30.04,SE,135,1.1,1.1,80,0.00,CLR,,0.00,WeatherDisplay:10.37,2013-01-30 22:43:00,
2013-01-30 12:48:00,75.0,68.4,30.04,SE,135,1.1,1.1,80,0.00,CLR,,0.00,WeatherDisplay:10.37,2013-01-30 22:48:00,
2013-01-30 12:53:00,75.0,68.4,30.04,SE,135,1.1,1.1,80,0.00,CLR,,0.00,WeatherDisplay:10.37,2013-01-30 22:53:00,
2013-01-30 12:58:00,75.0,68.4,30.04,SE,135,1.1,1.1,80,0.00,CLR,,0.00,WeatherDisplay:10.37,2013-01-30 22:58:00,
2013-01-30 13:03:00,75.0,68.4,30.04,SE,135,1.1,1.1,80,0.00,CLR,,0.00,WeatherDisplay:10.37,2013-01-30 23:03:00,
2013-01-30 13:08:00,75.0,68.4,30.04,SE,135,1.1,1.1,80,0.00,CLR,,0.00,WeatherDisplay:10.37,2013-01-30 23:08:00,
2013-01-30 13:13:00,75.0,68.4,30.04,SE,135,1.1,1.1,80,0.00,CLR,,0.00,WeatherDisplay:10.37,2013-01-30 23:13:00,
2013-01-30 13:18:00,75.0,68.4,30.04,SE,135,1.1,1.1,80,0.00,CLR,,0.00,WeatherDisplay:10.37,2013-01-30 23:18:00,
2013-01-30 13:23:00,75.0,68.4,30.04,SE,135,1.1,1.1,80,0.00,CLR,,0.00,WeatherDisplay:10.37,2013-01-30 23:23:00,
2013-01-30 13:28:00,75.0,68.4,30.04,SE,135,1.1,1.1,80,0.00,CLR,,0.00,WeatherDisplay:10.37,2013-01-30 23:28:00,
2013-01-30 13:33:00,75.0,68.4,30.04,SE,135,1.1,1.1,80,0.00,CLR,,0.00,WeatherDisplay:10.37,2013-01-30 23:33:00,
2013-01-30 13:38:00,75.0,68.4,30.04,SE,135,1.1,1.1,80,0.00,CLR,,0.00,WeatherDisplay:10.37,2013-01-30 23:38:00,
2013-01-30 13:43:00,75.0,68.4,30.04,SE,135,1.1,1.1,80,0.00,CLR,,0.00,WeatherDisplay:10.37,2013-01-30 23:43:00,
2013-01-30 13:48:00,75.0,68.4,30.04,SE,135,1.1,1.1,80,0.00,CLR,,0.00,WeatherDisplay:10.37,2013-01-30 23:48:00,
2013-01-30 13:54:00,75.0,68.4,30.04,SE,135,1.1,1.1,80,0.00,CLR,,0.00,WeatherDisplay:10.37,2013-01-30 23:54:00,
2013-01-30 13:59:00,75.0,68.4,30.04,SE,135,1.1,1.1,80,0.00,CLR,,0.00,WeatherDisplay:10.37,2013-01-30 23:59:00,
2013-01-30 14:04:00,75.0,68.4,30.04,SE,135,1.1,1.1,80,0.00,CLR,,0.00,WeatherDisplay:10.37,2013-01-31 00:04:00,
2013-01-30 14:09:00,75.0,68.4,30.04,SE,135,1.1,1.1,80,0.00,CLR,,0.00,WeatherDisplay:10.37,2013-01-31 00:09:00,
2013-01-30 14:14:00,75.0,68.4,30.04,SE,135,1.1,1.1,80,0.00,CLR,,0.00,WeatherDisplay:10.37,2013-01-31 00:14:00,
2013-01-30 14:19:00,75.0,68.4,30.04,SE,135,1.1,1.1,80,0.00,CLR,,0.00,WeatherDisplay:10.37,2013-01-31 00:19:00,
2013-01-30 14:24:00,75.0,68.4,30.04,SE,135,1.1,1.1,80,0.00,CLR,,0.00,WeatherDisplay:10.37,2013-01-31 00:24:00,
2013-01-30 14:29:00,75.0,68.4,30.04,SE,135,1.1,1.1,80,0.00,CLR,,0.00,WeatherDisplay:10.37,2013-01-31 00:29:00,
2013-01-30 14:34:00,75.0,68.4,30.04,SE,135,1.1,1.1,80,0.00,CLR,,0.00,WeatherDisplay:10.37,2013-01-31 00:34:00,
2013-01-30 14:39:00,75.0,68.4,30.04,SE,135,1.1,1.1,80,0.00,CLR,,0.00,WeatherDisplay:10.37,2013-01-31 00:39:00,
2013-01-30 14:44:00,75.0,68.4,30.04,SE,135,1.1,1.1,80,0.00,CLR,,0.00,WeatherDisplay:10.37,2013-01-31 00:44:00,
2013-01-30 14:49:00,75.0,68.4,30.04,SE,135,1.1,1.1,80,0.00,CLR,,0.00,WeatherDisplay:10.37,2013-01-31 00:49:00,
2013-01-30 14:54:00,75.0,68.4,30.04,SE,135,1.1,1.1,80,0.00,CLR,,0.00,WeatherDisplay:10.37,2013-01-31 00:54:00,
2013-01-30 14:59:00,75.0,68.4,30.04,SE,135,1.1,1.1,80,0.00,CLR,,0.00,WeatherDisplay:10.37,2013-01-31 00:59:00,
2013-01-30 15:05:00,75.0,68.4,30.04,SE,135,1.1,1.1,80,0.00,CLR,,0.00,WeatherDisplay:10.37,2013-01-31 01:05:00,
2013-01-30 15:10:00,75.0,68.4,30.04,SE,135,1.0,1.0,80,0.00,CLR,,0.00,WeatherDisplay:10.37,2013-01-31 01:10:00,
2013-01-30 15:15:00,75.0,68.4,30.04,SE,135,1.1,1.1,80,0.00,CLR,,0.00,WeatherDisplay:10.37,2013-01-31 01:15:00,
2013-01-30 15:20:00,75.0,68.4,30.04,SE,135,1.0,1.0,80,0.00,CLR,,0.00,WeatherDisplay:10.37,2013-01-31 01:20:00,
2013-01-30 15:25:00,75.0,68.4,30.04,SE,135,1.1,1.1,80,0.00,CLR,,0.00,WeatherDisplay:10.37,2013-01-31 01:25:00,
2013-01-30 15:30:00,75.0,68.4,30.04,SE,135,1.0,1.0,80,0.00,CLR,,0.00,WeatherDisplay:10.37,2013-01-31 01:30:00,
2013-01-30 15:35:00,75.0,68.4,30.04,SE,135,1.1,1.1,80,0.00,CLR,,0.00,WeatherDisplay:10.37,2013-01-31 01:35:00,
2013-01-30 15:40:00,75.0,68.4,30.04,SE,135,1.0,1.0,80,0.00,CLR,,0.00,WeatherDisplay:10.37,2013-01-31 01:40:00,
2013-01-30 15:45:00,75.0,68.4,30.04,SE,135,1.1,1.1,80,0.00,CLR,,0.00,WeatherDisplay:10.37,2013-01-31 01:45:00,
2013-01-30 15:50:00,75.0,68.4,30.04,SE,135,1.0,1.0,80,0.00,CLR,,0.00,WeatherDisplay:10.37,2013-01-31 01:50:00,
2013-01-30 15:55:00,75.0,68.4,30.04,SE,135,1.0,1.0,80,0.00,CLR,,0.00,WeatherDisplay:10.37,2013-01-31 01:55:00,
2013-01-30 16:00:00,75.0,68.4,30.04,SE,135,1.0,1.0,80,0.00,CLR,,0.00,WeatherDisplay:10.37,2013-01-31 02:00:00,
2013-01-30 16:05:00,75.0,68.4,30.04,SE,135,1.0,1.0,80,0.00,CLR,,0.00,WeatherDisplay:10.37,2013-01-31 02:05:00,
2013-01-30 16:10:00,75.0,68.4,30.04,SE,135,1.0,1.0,80,0.00,CLR,,0.00,WeatherDisplay:10.37,2013-01-31 02:10:00,
2013-01-30 16:15:00,75.0,68.4,30.04,SE,135,1.0,1.0,80,0.00,CLR,,0.00,WeatherDisplay:10.37,2013-01-31 02:15:00,
2013-01-30 16:20:00,75.0,68.4,30.04,SE,135,1.0,1.0,80,0.00,CLR,,0.00,WeatherDisplay:10.37,2013-01-31 02:20:00,
2013-01-30 16:25:00,75.0,68.4,30.04,SE,135,1.0,1.0,80,0.00,CLR,,0.00,WeatherDisplay:10.37,2013-01-31 02:25:00,
2013-01-30 16:30:00,75.0,68.4,30.04,SE,135,1.0,1.0,80,0.00,CLR,,0.00,WeatherDisplay:10.37,2013-01-31 02:30:00,
2013-01-30 16:35:00,75.0,68.4,30.04,SE,135,1.0,1.0,80,0.00,CLR,,0.00,WeatherDisplay:10.37,2013-01-31 02:35:00,
2013-01-30 16:40:00,75.0,68.4,30.04,SE,135,1.1,1.1,80,0.00,CLR,,0.00,WeatherDisplay:10.37,2013-01-31 02:40:00,
2013-01-30 16:45:00,75.0,68.4,30.04,SE,135,1.0,1.0,80,0.00,CLR,,0.00,WeatherDisplay:10.37,2013-01-31 02:45:00,
2013-01-30 16:50:00,75.0,68.4,30.04,SE,135,1.0,1.0,80,0.00,CLR,,0.00,WeatherDisplay:10.37,2013-01-31 02:50:00,
2013-01-30 16:55:00,75.0,68.4,30.04,SE,135,1.0,1.0,80,0.00,CLR,,0.00,WeatherDisplay:10.37,2013-01-31 02:55:00,
2013-01-30 17:00:00,75.0,68.4,30.04,SE,135,1.0,1.0,80,0.00,CLR,,0.00,WeatherDisplay:10.37,2013-01-31 03:00:00,
2013-01-30 17:05:00,75.0,68.4,30.04,SE,135,1.0,1.0,80,0.00,CLR,,0.00,WeatherDisplay:10.37,2013-01-31 03:05:00,
2013-01-30 17:10:00,75.0,68.4,30.04,SE,135,1.0,1.0,80,0.00,CLR,,0.00,WeatherDisplay:10.37,2013-01-31 03:10:00,
2013-01-30 17:15:00,75.0,68.4,30.04,SE,135,1.0,1.0,80,0.00,CLR,,0.00,WeatherDisplay:10.37,2013-01-31 03:15:00,
2013-01-30 17:20:00,75.0,68.4,30.04,SE,135,1.0,1.0,80,0.00,CLR,,0.00,WeatherDisplay:10.37,2013-01-31 03:20:00,
2013-01-30 17:25:00,75.0,68.4,30.04,SE,135,1.0,1.0,80,0.00,CLR,,0.00,WeatherDisplay:10.37,2013-01-31 03:25:00,
2013-01-30 17:30:00,75.0,68.4,30.04,SE,135,1.0,1.0,80,0.00,CLR,,0.00,WeatherDisplay:10.37,2013-01-31 03:30:00,
2013-01-30 17:35:00,75.0,68.4,30.04,SE,135,1.0,1.0,80,0.00,CLR,,0.00,WeatherDisplay:10.37,2013-01-31 03:35:00,
2013-01-30 17:40:00,75.0,68.4,30.04,SE,135,1.0,1.0,80,0.00,CLR,,0.00,WeatherDisplay:10.37,2013-01-31 03:40:00,
2013-01-30 17:45:00,75.0,68.4,30.04,SE,135,1.1,1.1,80,0.00,CLR,,0.00,WeatherDisplay:10.37,2013-01-31 03:45:00,
2013-01-30 17:50:00,75.0,68.4,30.04,SE,135,1.1,1.1,80,0.00,CLR,,0.00,WeatherDisplay:10.37,2013-01-31 03:50:00,
2013-01-30 17:55:00,75.0,68.4,30.04,SE,135,1.1,1.1,80,0.00,CLR,,0.00,WeatherDisplay:10.37,2013-01-31 03:55:00,
2013-01-30 18:00:00,75.0,68.4,30.04,SE,135,1.1,1.1,80,0.00,CLR,,0.00,WeatherDisplay:10.37,2013-01-31 04:00:00,
2013-01-30 18:05:00,75.0,68.4,30.04,SE,135,1.1,1.1,80,0.00,CLR,,0.00,WeatherDisplay:10.37,2013-01-31 04:05:00,
2013-01-30 18:10:00,75.0,68.4,30.04,SE,135,1.1,1.1,80,0.00,CLR,,0.00,WeatherDisplay:10.37,2013-01-31 04:10:00,
2013-01-30 18:15:00,75.0,68.4,30.04,SE,135,1.1,1.1,80,0.00,CLR,,0.00,WeatherDisplay:10.37,2013-01-31 04:15:00,
2013-01-30 18:20:00,75.0,68.4,30.04,SE,135,1.1,1.1,80,0.00,CLR,,0.00,WeatherDisplay:10.37,2013-01-31 04:20:00,
2013-01-30 18:25:00,75.0,68.4,30.04,SE,135,1.1,1.1,80,0.00,CLR,,0.00,WeatherDisplay:10.37,2013-01-31 04:25:00,
2013-01-30 18:30:00,75.0,68.4,30.04,SE,135,1.1,1.1,80,0.00,CLR,,0.00,WeatherDisplay:10.37,2013-01-31 04:30:00,
2013-01-30 18:35:00,75.0,68.4,30.04,SE,135,1.1,1.1,80,0.00,CLR,,0.00,WeatherDisplay:10.37,2013-01-31 04:35:00,
2013-01-30 18:40:00,75.0,68.4,30.04,SE,135,1.1,1.1,80,0.00,CLR,,0.00,WeatherDisplay:10.37,2013-01-31 04:40:00,
2013-01-30 18:45:00,75.0,68.4,30.04,SE,135,1.1,1.1,80,0.00,CLR,,0.00,WeatherDisplay:10.37,2013-01-31 04:45:00,
2013-01-30 18:51:00,75.0,68.4,30.04,SE,135,1.1,1.1,80,0.00,CLR,,0.00,WeatherDisplay:10.37,2013-01-31 04:51:00,
2013-01-30 18:56:00,75.0,68.4,30.04,SE,135,1.1,1.1,80,0.00,CLR,,0.00,WeatherDisplay:10.37,2013-01-31 04:56:00,
2013-01-30 19:00:00,75.0,68.4,30.04,SE,135,1.1,1.1,80,0.00,CLR,,0.00,WeatherDisplay:10.37,2013-01-31 05:00:00,
2013-01-30 19:03:00,75.0,68.4,30.04,SE,135,1.1,1.1,80,0.00,CLR,,0.00,WeatherDisplay:10.37,2013-01-31 05:03:00,
2013-01-30 19:08:00,75.0,68.4,30.04,SE,135,1.1,1.1,80,0.00,CLR,,0.00,WeatherDisplay:10.37,2013-01-31 05:08:00,
2013-01-30 19:13:00,75.0,68.4,30.04,SE,135,1.1,1.1,80,0.00,CLR,,0.00,WeatherDisplay:10.37,2013-01-31 05:13:00,
2013-01-30 19:18:00,75.0,68.4,30.04,SE,135,1.1,1.1,80,0.00,CLR,,0.00,WeatherDisplay:10.37,2013-01-31 05:18:00,
2013-01-30 19:23:00,75.0,68.4,30.04,SE,135,1.1,1.1,80,0.00,CLR,,0.00,WeatherDisplay:10.37,2013-01-31 05:23:00,
2013-01-30 19:28:00,75.0,68.4,30.04,SE,135,1.1,1.1,80,0.00,CLR,,0.00,WeatherDisplay:10.37,2013-01-31 05:28:00,
2013-01-30 19:34:00,75.0,68.4,30.04,SE,135,1.1,1.1,80,0.00,CLR,,0.00,WeatherDisplay:10.37,2013-01-31 05:34:00,
2013-01-30 19:38:00,75.0,68.4,30.04,SE,135,1.1,1.1,80,0.00,CLR,,0.00,WeatherDisplay:10.37,2013-01-31 05:38:00,
2013-01-30 19:44:00,75.0,68.4,30.04,SE,135,1.1,1.1,80,0.00,CLR,,0.00,WeatherDisplay:10.37,2013-01-31 05:44:00,
2013-01-30 19:49:00,75.0,68.4,30.04,SE,135,1.1,1.1,80,0.00,CLR,,0.00,WeatherDisplay:10.37,2013-01-31 05:49:00,
2013-01-30 19:54:00,75.0,68.4,30.04,SE,135,1.1,1.1,80,0.00,CLR,,0.00,WeatherDisplay:10.37,2013-01-31 05:54:00,
2013-01-30 19:59:00,75.0,68.4,30.04,SE,135,1.1,1.1,80,0.00,CLR,,0.00,WeatherDisplay:10.37,2013-01-31 05:59:00,
2013-01-30 20:04:00,75.0,68.4,30.04,SE,135,1.1,1.1,80,0.00,CLR,,0.00,WeatherDisplay:10.37,2013-01-31 06:04:00,
2013-01-30 20:09:00,75.0,68.4,30.04,SE,135,1.1,1.1,80,0.00,CLR,,0.00,WeatherDisplay:10.37,2013-01-31 06:09:00,
2013-01-30 20:14:00,75.0,68.4,30.04,SE,135,1.1,1.1,80,0.00,CLR,,0.00,WeatherDisplay:10.37,2013-01-31 06:14:00,
2013-01-30 20:19:00,75.0,68.4,30.04,SE,135,1.1,1.1,80,0.00,CLR,,0.00,WeatherDisplay:10.37,2013-01-31 06:19:00,
2013-01-30 20:24:00,75.0,68.4,30.04,SE,135,1.1,1.1,80,0.00,CLR,,0.00,WeatherDisplay:10.37,2013-01-31 06:24:00,
2013-01-30 20:29:00,75.0,68.4,30.04,SE,135,1.1,1.1,80,0.00,CLR,,0.00,WeatherDisplay:10.37,2013-01-31 06:29:00,
2013-01-30 20:34:00,75.0,68.4,30.04,SE,135,1.1,1.1,80,0.00,CLR,,0.00,WeatherDisplay:10.37,2013-01-31 06:34:00,
2013-01-30 20:39:00,75.0,68.4,30.04,SE,135,1.1,1.1,80,0.00,CLR,,0.00,WeatherDisplay:10.37,2013-01-31 06:39:00,
2013-01-30 20:44:00,75.0,68.4,30.04,SE,135,1.1,1.1,80,0.00,CLR,,0.00,WeatherDisplay:10.37,2013-01-31 06:44:00,
2013-01-30 20:49:00,75.0,68.4,30.04,SE,135,1.1,1.1,80,0.00,CLR,,0.00,WeatherDisplay:10.37,2013-01-31 06:49:00,
2013-01-30 20:54:00,75.0,68.4,30.04,SE,135,1.1,1.1,80,0.00,CLR,,0.00,WeatherDisplay:10.37,2013-01-31 06:54:00,
2013-01-30 20:59:00,75.0,68.4,30.04,SE,135,1.1,1.1,80,0.00,CLR,,0.00,WeatherDisplay:10.37,2013-01-31 06:59:00,
2013-01-30 21:04:00,75.0,68.4,30.04,SE,135,1.1,1.1,80,0.00,CLR,,0.00,WeatherDisplay:10.37,2013-01-31 07:04:00,
2013-01-30 21:09:00,75.0,68.4,30.04,SE,135,1.1,1.1,80,0.00,CLR,,0.00,WeatherDisplay:10.37,2013-01-31 07:09:00,
2013-01-30 21:15:00,75.0,68.4,30.04,SE,135,1.1,1.1,80,0.00,CLR,,0.00,WeatherDisplay:10.37,2013-01-31 07:15:00,
2013-01-30 21:20:00,75.0,68.4,30.04,SE,135,1.0,1.0,80,0.00,CLR,,0.00,WeatherDisplay:10.37,2013-01-31 07:20:00,
2013-01-30 21:25:00,75.0,68.4,30.04,SE,135,1.1,1.1,80,0.00,CLR,,0.00,WeatherDisplay:10.37,2013-01-31 07:25:00,
2013-01-30 21:30:00,75.0,68.4,30.04,SE,135,1.0,1.0,80,0.00,CLR,,0.00,WeatherDisplay:10.37,2013-01-31 07:30:00,
2013-01-30 21:35:00,75.0,68.4,30.04,SE,135,1.0,1.0,80,0.00,CLR,,0.00,WeatherDisplay:10.37,2013-01-31 07:35:00,
2013-01-30 21:40:00,75.0,68.4,30.04,SE,135,1.1,1.1,80,0.00,CLR,,0.00,WeatherDisplay:10.37,2013-01-31 07:40:00,
2013-01-30 21:45:00,75.0,68.4,30.04,SE,135,1.1,1.1,80,0.00,CLR,,0.00,WeatherDisplay:10.37,2013-01-31 07:45:00,
2013-01-30 21:50:00,75.0,68.4,30.04,SE,135,1.1,1.1,80,0.00,CLR,,0.00,WeatherDisplay:10.37,2013-01-31 07:50:00,
2013-01-30 21:55:00,75.0,68.4,30.04,SE,135,1.1,1.1,80,0.00,CLR,,0.00,WeatherDisplay:10.37,2013-01-31 07:55:00,
2013-01-30 22:00:00,75.0,68.4,30.04,SE,135,1.1,1.1,80,0.00,CLR,,0.00,WeatherDisplay:10.37,2013-01-31 08:00:00,
2013-01-30 22:05:00,75.0,68.4,30.04,SE,135,1.1,1.1,80,0.00,CLR,,0.00,WeatherDisplay:10.37,2013-01-31 08:05:00,
2013-01-30 22:10:00,75.0,68.4,30.04,SE,135,1.1,1.1,80,0.00,CLR,,0.00,WeatherDisplay:10.37,2013-01-31 08:10:00,
2013-01-30 22:15:00,75.0,68.4,30.04,SE,135,1.1,1.1,80,0.00,CLR,,0.00,WeatherDisplay:10.37,2013-01-31 08:15:00,
2013-01-30 22:20:00,75.0,68.4,30.04,SE,135,1.1,1.1,80,0.00,CLR,,0.00,WeatherDisplay:10.37,2013-01-31 08:20:00,
2013-01-30 22:25:00,75.0,68.4,30.04,SE,135,1.1,1.1,80,0.00,CLR,,0.00,WeatherDisplay:10.37,2013-01-31 08:25:00,
2013-01-30 22:30:00,75.0,68.4,30.04,SE,135,1.1,1.1,80,0.00,CLR,,0.00,WeatherDisplay:10.37,2013-01-31 08:30:00,
2013-01-30 22:35:00,75.0,68.4,30.04,SE,135,1.1,1.1,80,0.00,CLR,,0.00,WeatherDisplay:10.37,2013-01-31 08:35:00,
2013-01-30 22:40:00,75.0,68.4,30.04,SE,135,1.1,1.1,80,0.00,CLR,,0.00,WeatherDisplay:10.37,2013-01-31 08:40:00,
2013-01-30 22:45:00,75.0,68.4,30.04,SE,135,1.1,1.1,80,0.00,CLR,,0.00,WeatherDisplay:10.37,2013-01-31 08:45:00,
2013-01-30 22:50:00,75.0,68.4,30.04,SE,135,1.1,1.1,80,0.00,CLR,,0.00,WeatherDisplay:10.37,2013-01-31 08:50:00,
2013-01-30 22:56:00,75.0,68.4,30.04,SE,135,1.1,1.1,80,0.00,CLR,,0.00,WeatherDisplay:10.37,2013-01-31 08:56:00,
2013-01-30 23:01:00,75.0,68.4,30.04,SE,135,1.1,1.1,80,0.00,CLR,,0.00,WeatherDisplay:10.37,2013-01-31 09:01:00,
2013-01-30 23:06:00,75.0,68.4,30.04,SE,135,1.1,1.1,80,0.00,CLR,,0.00,WeatherDisplay:10.37,2013-01-31 09:06:00,
2013-01-30 23:11:00,75.0,68.4,30.04,SE,135,1.1,1.1,80,0.00,CLR,,0.00,WeatherDisplay:10.37,2013-01-31 09:11:00,
2013-01-30 23:16:00,75.0,68.4,30.04,SE,135,1.1,1.1,80,0.00,CLR,,0.00,WeatherDisplay:10.37,2013-01-31 09:16:00,
2013-01-30 23:21:00,75.0,68.4,30.04,SE,135,1.1,1.1,80,0.00,CLR,,0.00,WeatherDisplay:10.37,2013-01-31 09:21:00,
2013-01-30 23:26:00,75.0,68.4,30.04,SE,135,1.1,1.1,80,0.00,CLR,,0.00,WeatherDisplay:10.37,2013-01-31 09:26:00,
2013-01-30 23:31:00,75.0,68.4,30.04,SE,135,1.1,1.1,80,0.00,CLR,,0.00,WeatherDisplay:10.37,2013-01-31 09:31:00,
2013-01-30 23:36:00,75.0,68.4,30.04,SE,135,1.1,1.1,80,0.00,CLR,,0.00,WeatherDisplay:10.37,2013-01-31 09:36:00,
2013-01-30 23:41:00,75.0,68.4,30.04,SE,135,1.1,1.1,80,0.00,CLR,,0.00,WeatherDisplay:10.37,2013-01-31 09:41:00,
2013-01-30 23:46:00,75.0,68.4,30.04,SE,135,1.1,1.1,80,0.00,CLR,,0.00,WeatherDisplay:10.37,2013-01-31 09:46:00,
2013-01-30 23:51:00,75.0,68.4,30.04,SE,135,1.1,1.1,80,0.00,CLR,,0.00,WeatherDisplay:10.37,2013-01-31 09:51:00,
2013-01-30 23:56:00,75.0,68.4,30.04,SE,135,1.1,1.1,80,0.00,CLR,,0.00,WeatherDisplay:10.37,2013-01-31 09:56:00,